Friday, March 27, 2015
22:10 UTC
  |  Log In   |  Register Free
Airport Search:

Mccarley Fld Airport
(U02)

Mccarley Fld Airport Diagram
No Airport Diagram Available

FAA data valid effective March 05, 2015 - April 30, 2015 (unless otherwise noted).

 
 
 
 
 
 
 
 
 
 
 
 
 
 

Current Aviation Weather for Mccarley Fld Airport (U02)

METAR data is unavailable for U02. The nearest METAR location is at KPIH (21 nm SW from U02).

The most recent METAR observation for KPIH was updated at: 1412
METAR Summary (Translated METAR)
KPIH
251353Z 21004KT 10SM CLR M03/M06 A3033 RMK AO2 SLP286 T10281056
(21 nm SW from U02)
KIDA
251353Z 20007KT 10SM FEW150 M03/M05 A3031 RMK AO2 SLP284 T10331050
(22 nm NE from U02)
TAF Summary (Translated TAF)
KPIH
251120Z 2512/2612 22009KT P6SM SCT200 FM252000 22012G20KT P6SM SCT100 SCT200 FM260200 22007KT P6SM SCT250
KIDA
(42.9 nm NE from KPIH)
251120Z 2512/2612 20008KT P6SM SCT200 FM252000 22012G20KT P6SM SCT100 BKN250 FM260200 21006KT P6SM SCT250
  Airport Weather Conditions for U02

Current weather conditions are
not available for U02


The nearest NOAA weather station
is at PIH, (21 nm SW from U02)
  
 Current Weather at PIH
70° F
A Few Clouds
West winds at 6.9 mph
PIH NOAA Radar

Pressure: 30.19 in
Humidity: 27%
Wind: West at 6.9 MPH (6 KT)
Dew Point: 34.0°F
Visibility: 10.00 mi


Airport Weather Forecast for U02

Translated METAR and TAF for KPIH
Translated METAR for KPIH (2210 UTC 27 March 2015)
found at http://aviationweather.gov/adds/metars/
 
METAR text: KPIH 272153Z 27008KT 10SM FEW070 22/01 A3016 RMK AO2 SLP196 T02220011
Conditions at: KPIH (POCATELLO , ID, US) observed 2153 UTC 27 March 2015
Temperature: 22.2°C (72°F)
Dewpoint: 1.1°C (34°F) [RH = 25%]
Pressure (altimeter): 30.16 inches Hg (1021.4 mb)
[Sea-level pressure: 1019.6 mb]
Winds: from the W (270 degrees) at 9 MPH (8 knots; 4.2 m/s)
Visibility: 10 or more miles (16+ km)
Ceiling: at least 12,000 feet AGL
Clouds: few clouds at 7000 feet AGL
Weather: no significant weather observed at this time
Translated TAF for KPIH
Forecast for: KPIH (POCATELLO , ID, US)
TAF Text: KPIH 272200Z 2722/2818 28011KT P6SM SKC
Forecast period: 2200 UTC 27 March 2015 to 0300 UTC 28 March 2015
Forecast type: FROM: standard forecast or significant change
Winds: from the W (280 degrees) at 13 MPH (11 knots; 5.7 m/s)
Visibility: 6 or more miles (10+ km)
Clouds: clear skies
Weather: no significant weather forecast for this period
TAF Text: FM280300 VRB05KT P6SM SKC
Forecast period: 0300 to 0900 UTC 28 March 2015
Forecast type: FROM: standard forecast or significant change
Winds: variable direction winds at 6 MPH (5 knots; 2.6 m/s)
Visibility: 6 or more miles (10+ km)
Clouds: clear skies
Weather: no significant weather forecast for this period
TAF Text: FM280900 19010KT P6SM FEW080
Forecast period: 0900 to 1500 UTC 28 March 2015
Forecast type: FROM: standard forecast or significant change
Winds: from the S (190 degrees) at 12 MPH (10 knots; 5.2 m/s)
Visibility: 6 or more miles (10+ km)
Clouds: few clouds at 8000 feet AGL
Weather: no significant weather forecast for this period
TAF Text: FM281500 22013G23KT P6SM SCT070 SCT150
Forecast period: 1500 to 1800 UTC 28 March 2015
Forecast type: FROM: standard forecast or significant change
Winds: from the SW (220 degrees) at 15 MPH (13 knots; 6.8 m/s)
gusting to 26 MPH (23 knots; 12.0 m/s)
Visibility: 6 or more miles (10+ km)
Clouds: scattered clouds at 7000 feet AGL
scattered clouds at 15000 feet AGL
Weather: no significant weather forecast for this period

Find All Airport Services Find A Hotel Find A Rental Car Find A Golf Course Find A Restaurant $100 Hamburger



FBO's on the Field
FBO Company Facility Photos Services Transportation Aviation Fuel Prices: Prices include tax
Catering Weather Repair Courtesy Rental Type 100LL JetA JetA+ MOGAS 8087
 
City of Blackfoot

This FBO has not yet been rated
FS:Independent
Last Updated: Mar-05
Login to update fuel prices
SS:
Contact City of BlackfootMore FBO Information
 
Add another FBO Facility Photos Catering Weather Repair Courtesy Rental Type 100LL JetA JetA+ MOGAS 8087
Services Transportation Aviation Fuel Prices: Prices include tax


model-print
model-print
model-print
model-print